Time;durP1;ratioP1;P1;durP2;ratioP2;P2;SDS_P1;SDS_P2;PMS_P1;PMS_P2;Temp;Humidity;BMP_temperature;BMP_pressure;BME280_temperature;BME280_humidity;BME280_pressure;Samples;Min_cycle;Max_cycle;Signal;HPM_P1;HPM_P2
2022/02/19 00:01:30;;;;;;;8.25;1.70;;;8.90;99.90;;;;;;5035315;28;20553;-82
2022/02/19 00:03:57;;;;;;;9.88;1.65;;;8.90;99.90;;;;;;5053161;28;20025;-81
2022/02/19 00:06:23;;;;;;;6.97;1.23;;;8.90;99.90;;;;;;5035377;28;20384;-82
2022/02/19 00:08:48;;;;;;;7.57;1.60;;;8.90;99.90;;;;;;5035217;28;20033;-82
2022/02/19 00:11:14;;;;;;;6.40;1.60;;;8.90;99.90;;;;;;5035284;28;20362;-82
2022/02/19 00:13:40;;;;;;;10.07;1.75;;;8.90;99.90;;;;;;5035081;28;20029;-83
2022/02/19 00:16:06;;;;;;;5.65;1.55;;;8.90;99.90;;;;;;5035155;28;20195;-81
2022/02/19 00:18:33;;;;;;;7.88;1.67;;;8.80;99.90;;;;;;5035196;28;20025;-82
2022/02/19 00:20:58;;;;;;;7.30;1.90;;;8.90;99.90;;;;;;5035216;28;20391;-82
2022/02/19 00:23:29;;;;;;;11.07;1.70;;;8.90;99.90;;;;;;5035075;28;20111;-81
2022/02/19 00:25:55;;;;;;;6.05;1.65;;;8.80;99.90;;;;;;5035095;28;20503;-81
2022/02/19 00:28:20;;;;;;;9.02;1.95;;;8.80;99.90;;;;;;5035037;28;20029;-81
2022/02/19 00:30:46;;;;;;;11.15;1.95;;;8.80;99.90;;;;;;5034969;28;20036;-81
2022/02/19 00:33:12;;;;;;;6.63;1.48;;;8.80;99.90;;;;;;5035131;28;20029;-82
2022/02/19 00:35:38;;;;;;;7.35;2.63;;;8.80;99.90;;;;;;5034876;28;20025;-82
2022/02/19 00:38:03;;;;;;;5.90;1.58;;;8.80;99.90;;;;;;5034905;28;20052;-82
2022/02/19 00:40:29;;;;;;;8.13;1.92;;;8.80;99.90;;;;;;5034928;28;20044;-81
2022/02/19 00:42:55;;;;;;;8.98;1.63;;;8.80;99.90;;;;;;5034925;28;20025;-84
2022/02/19 00:45:20;;;;;;;5.95;1.48;;;8.80;99.90;;;;;;5052953;28;20022;-81
2022/02/19 00:47:46;;;;;;;7.85;2.10;;;8.80;99.90;;;;;;5034849;28;20029;-81
2022/02/19 00:50:13;;;;;;;5.13;1.40;;;8.80;99.90;;;;;;5034939;28;20036;-81
2022/02/19 00:52:39;;;;;;;6.65;1.88;;;8.80;99.90;;;;;;5034673;28;20061;-82
2022/02/19 00:55:06;;;;;;;6.90;1.75;;;8.80;99.90;;;;;;5052711;28;20049;-81
2022/02/19 00:57:32;;;;;;;9.88;2.10;;;8.70;99.90;;;;;;5052591;28;20033;-82
2022/02/19 00:59:57;;;;;;;8.95;1.90;;;8.70;99.90;;;;;;5052917;28;20465;-81
2022/02/19 01:02:23;;;;;;;8.45;1.70;;;8.70;99.90;;;;;;5034548;28;20049;-81
2022/02/19 01:04:49;;;;;;;8.23;1.42;;;8.70;99.90;;;;;;5034821;28;20128;-81
2022/02/19 01:07:14;;;;;;;7.00;1.38;;;8.70;99.90;;;;;;5055315;28;20025;-82
2022/02/19 01:09:40;;;;;;;8.00;1.80;;;8.70;99.90;;;;;;5056343;28;20025;-82
2022/02/19 01:12:06;;;;;;;8.80;1.92;;;8.70;99.90;;;;;;5038388;28;20477;-83
2022/02/19 01:14:32;;;;;;;10.88;1.80;;;8.70;99.90;;;;;;5038335;28;20032;-82
2022/02/19 01:16:57;;;;;;;8.32;1.73;;;8.70;99.90;;;;;;5038354;28;20023;-81
2022/02/19 01:19:23;;;;;;;8.80;1.80;;;8.70;99.90;;;;;;5038174;28;20384;-81
2022/02/19 01:21:49;;;;;;;8.63;1.90;;;8.70;99.90;;;;;;5038077;28;20135;-82
2022/02/19 01:24:15;;;;;;;10.30;2.00;;;8.70;99.90;;;;;;5038053;28;20444;-82
2022/02/19 01:26:40;;;;;;;9.98;1.90;;;8.70;99.90;;;;;;5038033;28;20025;-81
2022/02/19 01:29:06;;;;;;;12.20;2.13;;;8.70;99.90;;;;;;5056095;28;20114;-81
2022/02/19 01:31:33;;;;;;;6.75;1.85;;;8.70;99.90;;;;;;5038005;28;20021;-85
2022/02/19 01:33:58;;;;;;;10.07;1.98;;;8.70;99.90;;;;;;5037757;28;20522;-82
2022/02/19 01:36:24;;;;;;;9.77;1.52;;;8.60;99.90;;;;;;5037807;28;20021;-81
2022/02/19 01:38:50;;;;;;;8.02;1.70;;;8.60;99.90;;;;;;5037927;28;20398;-81
2022/02/19 01:41:15;;;;;;;7.75;1.55;;;8.60;99.90;;;;;;5037908;28;20024;-81
2022/02/19 01:43:41;;;;;;;7.78;1.67;;;8.60;99.90;;;;;;5055717;28;20025;-81
2022/02/19 01:46:07;;;;;;;9.70;2.13;;;8.60;99.90;;;;;;5037771;28;20032;-81
2022/02/19 01:48:32;;;;;;;8.95;1.50;;;8.60;99.90;;;;;;5037719;28;20530;-81
2022/02/19 01:50:58;;;;;;;8.30;1.80;;;8.60;99.90;;;;;;5037755;28;20559;-81
2022/02/19 01:53:24;;;;;;;7.50;1.73;;;8.60;99.90;;;;;;5037485;28;20033;-81
2022/02/19 01:55:50;;;;;;;8.57;1.70;;;8.60;99.90;;;;;;5055405;28;20090;-82
2022/02/19 01:58:16;;;;;;;13.90;1.83;;;8.60;99.90;;;;;;5037456;28;20060;-83
2022/02/19 02:00:42;;;;;;;10.20;1.95;;;8.50;99.90;;;;;;5037173;28;20025;-83
2022/02/19 02:03:08;;;;;;;7.15;2.10;;;8.50;99.90;;;;;;5037360;28;20090;-81
2022/02/19 02:05:34;;;;;;;10.25;2.00;;;8.60;99.90;;;;;;5055188;28;20036;-82
2022/02/19 02:08:05;;;;;;;10.05;2.20;;;8.50;99.90;;;;;;5037330;28;20408;-81
2022/02/19 02:10:34;;;;;;;13.35;2.40;;;8.50;99.90;;;;;;5055233;28;20025;-82
2022/02/19 02:13:01;;;;;;;12.05;2.15;;;8.50;99.90;;;;;;5037067;28;20052;-82
2022/02/19 02:15:31;;;;;;;9.55;2.25;;;8.50;99.90;;;;;;5037984;28;20017;-82
2022/02/19 02:17:58;;;;;;;11.25;1.88;;;8.50;99.90;;;;;;5036662;28;20504;-82
2022/02/19 02:20:25;;;;;;;9.40;2.10;;;8.50;99.90;;;;;;5037078;28;20025;-81
2022/02/19 02:22:50;;;;;;;11.60;2.20;;;8.50;99.90;;;;;;5037076;28;20107;-81
2022/02/19 02:25:27;;;;;;;8.93;1.90;;;8.50;99.90;;;;;;5037060;28;20167;-82
2022/02/19 02:27:54;;;;;;;12.18;1.92;;;8.50;99.90;;;;;;5037040;28;20031;-81
2022/02/19 02:30:20;;;;;;;8.93;2.00;;;8.50;99.90;;;;;;5036929;28;20052;-81
2022/02/19 02:32:45;;;;;;;13.70;2.20;;;8.50;99.90;;;;;;5036826;28;20445;-81
2022/02/19 02:35:11;;;;;;;7.38;1.98;;;8.50;99.90;;;;;;5036858;28;20025;-81
2022/02/19 02:37:37;;;;;;;9.88;1.80;;;8.50;99.90;;;;;;5036805;28;20484;-82
2022/02/19 02:40:04;;;;;;;9.45;1.70;;;8.50;99.90;;;;;;5054921;28;20079;-81
2022/02/19 02:42:30;;;;;;;12.63;2.72;;;8.40;99.90;;;;;;5036617;28;20086;-81
2022/02/19 02:44:55;;;;;;;7.80;1.77;;;8.50;99.90;;;;;;5036704;28;20033;-81
2022/02/19 02:47:21;;;;;;;12.07;2.40;;;8.40;99.90;;;;;;5036665;28;20438;-82
2022/02/19 02:49:47;;;;;;;10.73;2.08;;;8.40;99.90;;;;;;5036895;28;20099;-82
2022/02/19 02:52:12;;;;;;;14.23;2.10;;;8.40;99.90;;;;;;5036440;28;20461;-82
2022/02/19 02:54:38;;;;;;;12.15;1.40;;;8.40;99.90;;;;;;5036463;28;20021;-81
2022/02/19 02:57:04;;;;;;;16.83;3.00;;;8.40;99.90;;;;;;5054223;28;20048;-82
2022/02/19 02:59:30;;;;;;;7.38;2.03;;;8.40;99.90;;;;;;5036305;28;20488;-82
2022/02/19 03:01:56;;;;;;;7.55;1.80;;;8.40;99.90;;;;;;5054093;28;20040;-81
2022/02/19 03:04:21;;;;;;;6.57;2.00;;;8.40;99.90;;;;;;5036268;28;20032;-81
2022/02/19 03:06:47;;;;;;;5.95;1.88;;;8.40;99.90;;;;;;5036261;28;20025;-81
2022/02/19 03:09:13;;;;;;;11.32;2.35;;;8.40;99.90;;;;;;5036157;28;20021;-81
2022/02/19 03:11:39;;;;;;;12.25;1.70;;;8.40;99.90;;;;;;5036066;28;20439;-81
2022/02/19 03:14:10;;;;;;;7.18;1.75;;;8.40;99.90;;;;;;5035999;28;20025;-81
2022/02/19 03:16:37;;;;;;;12.20;2.00;;;8.40;99.90;;;;;;5053737;28;20377;-82
2022/02/19 03:19:03;;;;;;;7.57;1.88;;;8.40;99.90;;;;;;5036019;28;20136;-82
2022/02/19 03:21:29;;;;;;;9.10;1.98;;;8.40;99.90;;;;;;5036013;28;20489;-82
2022/02/19 03:23:55;;;;;;;9.65;2.10;;;8.40;99.90;;;;;;5035906;28;20021;-81
2022/02/19 03:26:21;;;;;;;9.02;2.13;;;8.40;99.90;;;;;;5035898;28;20102;-82
2022/02/19 03:28:47;;;;;;;11.80;1.90;;;8.30;99.90;;;;;;5035673;28;20064;-82
2022/02/19 03:31:13;;;;;;;14.07;2.22;;;8.40;99.90;;;;;;5035172;28;20074;-81
2022/02/19 03:33:39;;;;;;;10.35;2.13;;;8.30;99.90;;;;;;5035736;28;20032;-81
2022/02/19 03:36:05;;;;;;;10.15;1.83;;;8.40;99.90;;;;;;5035786;28;20021;-81
2022/02/19 03:38:30;;;;;;;12.52;2.33;;;8.40;99.90;;;;;;5053562;28;20013;-81
2022/02/19 03:40:56;;;;;;;8.80;1.75;;;8.30;99.90;;;;;;5035743;28;20021;-81
2022/02/19 03:43:22;;;;;;;11.30;2.00;;;8.30;99.90;;;;;;5035632;28;20031;-81
2022/02/19 03:45:47;;;;;;;14.40;2.33;;;8.30;99.90;;;;;;5035643;28;20029;-81
2022/02/19 03:48:13;;;;;;;11.10;1.85;;;8.30;99.90;;;;;;5035850;28;20025;-82
2022/02/19 03:50:39;;;;;;;9.75;1.80;;;8.30;99.90;;;;;;5035486;28;20078;-82
2022/02/19 03:53:05;;;;;;;9.30;2.17;;;8.30;99.90;;;;;;5035271;28;20029;-83
2022/02/19 03:55:30;;;;;;;7.88;1.92;;;8.30;99.90;;;;;;5035389;28;20029;-81
2022/02/19 03:57:56;;;;;;;9.20;1.90;;;8.30;99.90;;;;;;5035633;28;20108;-82
2022/02/19 04:00:23;;;;;;;7.93;2.10;;;8.30;99.90;;;;;;5035308;28;20409;-81
2022/02/19 04:02:49;;;;;;;9.98;2.15;;;8.20;99.90;;;;;;5035195;28;20053;-81
2022/02/19 04:05:15;;;;;;;9.82;2.00;;;8.30;99.90;;;;;;5035321;28;20366;-82
2022/02/19 04:07:41;;;;;;;7.63;1.73;;;8.20;99.90;;;;;;5035293;28;20025;-82
2022/02/19 04:10:08;;;;;;;8.30;2.10;;;8.20;99.90;;;;;;5035267;28;20108;-81
2022/02/19 04:12:34;;;;;;;12.45;2.00;;;8.20;99.90;;;;;;5034871;28;20562;-81
2022/02/19 04:15:00;;;;;;;11.68;2.45;;;8.20;99.90;;;;;;5035169;28;20021;-81
2022/02/19 04:17:26;;;;;;;8.23;1.70;;;8.20;99.90;;;;;;5035147;28;20048;-82
2022/02/19 04:19:53;;;;;;;6.68;1.58;;;8.20;99.90;;;;;;5052989;28;20017;-82
2022/02/19 04:22:23;;;;;;;7.40;1.55;;;8.20;99.90;;;;;;5053158;28;20086;-82
2022/02/19 04:24:50;;;;;;;9.13;1.90;;;8.20;99.90;;;;;;5034939;28;20063;-81
2022/02/19 04:27:17;;;;;;;6.97;1.70;;;8.20;99.90;;;;;;5034934;28;20036;-82
2022/02/19 04:29:43;;;;;;;8.57;1.52;;;8.20;99.90;;;;;;5034965;28;20032;-82
2022/02/19 04:32:09;;;;;;;10.40;1.80;;;8.20;99.90;;;;;;5034859;28;20037;-82
2022/02/19 04:34:35;;;;;;;13.15;2.30;;;8.20;99.90;;;;;;5034922;28;20078;-82
2022/02/19 04:37:01;;;;;;;9.00;1.85;;;8.20;99.90;;;;;;5034898;28;20393;-81
2022/02/19 04:39:27;;;;;;;11.45;2.03;;;8.20;99.90;;;;;;5034860;28;20022;-81
2022/02/19 04:41:52;;;;;;;8.63;1.75;;;8.20;99.90;;;;;;5037141;28;20484;-81
2022/02/19 04:44:18;;;;;;;10.88;2.05;;;8.10;99.90;;;;;;5038798;28;20025;-81
2022/02/19 04:46:44;;;;;;;6.55;1.88;;;8.10;99.90;;;;;;5039003;28;20067;-82
2022/02/19 04:49:10;;;;;;;8.50;1.83;;;8.10;99.90;;;;;;5038719;28;20029;-81
2022/02/19 04:51:36;;;;;;;9.40;1.90;;;8.10;99.90;;;;;;5038571;28;20031;-82
2022/02/19 04:54:02;;;;;;;8.40;1.90;;;8.10;99.90;;;;;;5056444;28;20052;-82
2022/02/19 04:56:28;;;;;;;11.45;1.88;;;8.10;99.90;;;;;;5038632;28;20025;-81
2022/02/19 04:58:54;;;;;;;12.82;1.48;;;8.10;99.90;;;;;;5038519;28;20024;-81
2022/02/19 05:01:20;;;;;;;8.18;1.73;;;8.10;99.90;;;;;;5038418;28;20044;-82
2022/02/19 05:03:45;;;;;;;9.07;1.70;;;8.10;99.90;;;;;;5038552;28;20021;-81
2022/02/19 05:06:15;;;;;;;9.90;1.48;;;8.10;99.90;;;;;;5038550;28;20025;-82
2022/02/19 05:08:41;;;;;;;11.07;1.85;;;8.10;99.90;;;;;;5038446;28;20021;-81
2022/02/19 05:11:08;;;;;;;9.25;1.63;;;8.10;99.90;;;;;;5038462;28;20050;-81
2022/02/19 05:13:33;;;;;;;9.60;2.05;;;8.10;99.90;;;;;;5038231;28;20025;-81
2022/02/19 05:15:59;;;;;;;8.52;1.75;;;8.10;99.90;;;;;;5038310;28;20083;-81
2022/02/19 05:18:25;;;;;;;5.63;1.58;;;8.00;99.90;;;;;;5038296;28;20521;-81
2022/02/19 05:20:52;;;;;;;8.38;1.85;;;8.00;99.90;;;;;;5038329;28;20031;-81
2022/02/19 05:23:20;;;;;;;11.93;2.08;;;8.00;99.90;;;;;;5038483;28;20400;-81
2022/02/19 05:25:46;;;;;;;9.43;2.30;;;8.10;99.90;;;;;;5038159;28;20063;-82
2022/02/19 05:28:12;;;;;;;8.30;2.28;;;8.00;99.90;;;;;;5038073;28;20049;-82
2022/02/19 05:30:38;;;;;;;7.72;1.70;;;8.00;99.90;;;;;;5038035;28;20029;-82
2022/02/19 05:33:03;;;;;;;8.43;1.92;;;8.00;99.90;;;;;;5037880;28;20021;-81
2022/02/19 05:35:29;;;;;;;10.20;2.30;;;8.00;99.90;;;;;;5055847;28;20053;-81
2022/02/19 05:37:55;;;;;;;8.68;1.77;;;8.00;99.90;;;;;;5055820;28;20469;-81
2022/02/19 05:40:21;;;;;;;8.32;1.90;;;8.00;99.90;;;;;;5037777;28;20109;-81
2022/02/19 05:42:47;;;;;;;6.18;1.73;;;8.00;99.90;;;;;;5037773;28;20047;-81
2022/02/19 05:45:12;;;;;;;11.20;2.03;;;8.00;99.90;;;;;;5037690;28;20078;-81
2022/02/19 05:47:38;;;;;;;10.60;1.63;;;8.00;99.90;;;;;;5038597;28;20119;-81
2022/02/19 05:50:04;;;;;;;8.40;1.63;;;8.00;99.90;;;;;;5037659;28;20477;-81
2022/02/19 05:52:30;;;;;;;10.82;1.98;;;8.00;99.90;;;;;;5054360;28;20055;-82
2022/02/19 05:54:56;;;;;;;7.93;2.15;;;8.00;99.90;;;;;;5055399;28;20096;-81
2022/02/19 05:57:22;;;;;;;8.88;2.00;;;8.00;99.90;;;;;;5037385;28;20021;-82
2022/02/19 05:59:49;;;;;;;8.75;1.80;;;8.00;99.90;;;;;;5055063;28;20021;-82
2022/02/19 06:02:16;;;;;;;6.97;1.60;;;7.90;99.90;;;;;;5037182;28;20041;-82
2022/02/19 06:04:42;;;;;;;7.40;1.58;;;7.90;99.90;;;;;;5037249;28;20029;-81
2022/02/19 06:07:07;;;;;;;7.85;1.45;;;7.90;99.90;;;;;;5037317;28;20021;-81
2022/02/19 06:09:33;;;;;;;10.15;1.60;;;8.00;99.90;;;;;;5037261;28;20018;-81
2022/02/19 06:11:59;;;;;;;6.03;1.65;;;7.90;99.90;;;;;;5037198;28;20028;-81
2022/02/19 06:14:25;;;;;;;10.77;1.70;;;7.90;99.90;;;;;;5037257;28;20032;-81
2022/02/19 06:16:50;;;;;;;9.50;1.95;;;7.90;99.90;;;;;;5037143;28;20017;-81
2022/02/19 06:19:17;;;;;;;8.75;2.00;;;7.90;99.90;;;;;;5036990;28;20492;-81
2022/02/19 06:21:43;;;;;;;8.40;1.58;;;7.90;99.90;;;;;;5054958;28;20029;-81
2022/02/19 06:24:08;;;;;;;7.07;1.70;;;7.90;99.90;;;;;;5037006;28;20480;-81
2022/02/19 06:26:34;;;;;;;6.40;1.63;;;7.90;99.90;;;;;;5037166;28;20063;-81
2022/02/19 06:29:00;;;;;;;5.82;1.27;;;7.90;99.90;;;;;;5037038;28;20029;-82
2022/02/19 06:31:26;;;;;;;9.55;1.98;;;7.90;99.90;;;;;;5054834;28;20025;-81
2022/02/19 06:33:52;;;;;;;5.68;1.55;;;7.90;99.90;;;;;;5036813;28;20440;-81
2022/02/19 06:36:21;;;;;;;8.77;1.90;;;7.90;99.90;;;;;;5036849;28;20021;-81
2022/02/19 06:38:48;;;;;;;7.05;1.60;;;7.90;99.90;;;;;;5054607;28;20013;-81
2022/02/19 06:41:14;;;;;;;6.72;1.80;;;8.00;99.90;;;;;;5036796;28;20461;-81
2022/02/19 06:43:40;;;;;;;9.73;1.80;;;8.00;99.90;;;;;;5036690;28;20036;-81
2022/02/19 06:46:06;;;;;;;8.15;1.73;;;7.90;99.90;;;;;;5036675;28;20036;-81
2022/02/19 06:48:32;;;;;;;8.13;1.70;;;7.90;99.90;;;;;;5054358;28;20024;-81
2022/02/19 06:50:58;;;;;;;9.00;1.95;;;8.00;99.90;;;;;;5036414;28;20396;-81
2022/02/19 06:53:25;;;;;;;9.75;1.77;;;7.90;99.90;;;;;;5036306;28;20032;-81
2022/02/19 06:55:51;;;;;;;8.80;2.00;;;7.90;99.90;;;;;;5036502;28;20032;-81
2022/02/19 06:58:17;;;;;;;5.85;1.67;;;8.00;99.90;;;;;;5036606;28;20033;-81
2022/02/19 07:00:42;;;;;;;39.35;13.63;;;8.00;99.90;;;;;;5037411;28;20090;-82
2022/02/19 07:03:08;;;;;;;28.55;11.45;;;7.90;99.90;;;;;;5036247;28;20160;-81
2022/02/19 07:05:34;;;;;;;29.90;11.18;;;7.80;99.90;;;;;;5054040;28;20029;-82
2022/02/19 07:07:59;;;;;;;25.98;9.27;;;8.00;99.90;;;;;;5053985;28;20024;-81
2022/02/19 07:10:27;;;;;;;28.08;11.57;;;8.30;99.90;;;;;;5036099;28;20032;-81
2022/02/19 07:12:56;;;;;;;31.15;11.93;;;8.50;99.90;;;;;;5053845;28;20033;-82
2022/02/19 07:15:22;;;;;;;30.65;12.13;;;8.80;99.90;;;;;;5054202;28;20491;-81
2022/02/19 07:17:49;;;;;;;25.20;9.80;;;8.90;99.90;;;;;;5035970;28;20059;-81
2022/02/19 07:20:15;;;;;;;22.90;9.18;;;9.00;99.90;;;;;;5035857;28;20028;-81
2022/02/19 07:22:41;;;;;;;25.70;10.00;;;9.00;99.90;;;;;;5035849;28;20047;-81
2022/02/19 07:25:07;;;;;;;26.33;8.73;;;9.10;99.90;;;;;;5035895;28;20025;-81
2022/02/19 07:27:41;;;;;;;21.52;8.25;;;9.00;99.90;;;;;;5035796;28;20029;-81
2022/02/19 07:30:09;;;;;;;23.77;9.85;;;8.80;99.90;;;;;;5035812;28;20036;-81
2022/02/19 07:32:39;;;;;;;21.13;8.75;;;8.70;99.90;;;;;;5035678;28;20029;-81
2022/02/19 07:35:09;;;;;;;22.17;7.65;;;8.50;99.90;;;;;;5035660;28;20025;-81
2022/02/19 07:37:36;;;;;;;17.55;7.63;;;8.40;99.90;;;;;;5035654;28;20525;-81
2022/02/19 07:40:07;;;;;;;20.05;7.47;;;8.40;99.90;;;;;;5035466;28;20017;-81
2022/02/19 07:42:33;;;;;;;18.60;7.35;;;8.30;99.90;;;;;;5035507;28;20025;-81
2022/02/19 07:44:59;;;;;;;16.10;6.47;;;8.20;99.90;;;;;;5035485;28;20033;-81
2022/02/19 07:47:27;;;;;;;18.30;5.97;;;8.20;99.90;;;;;;5035438;28;20029;-81
2022/02/19 07:58:19;;;;;;;14.38;5.65;;;8.10;99.90;;;;;;5053801;28;19928;-81
2022/02/19 08:00:48;;;;;;;17.02;5.85;;;8.10;99.90;;;;;;5035066;28;20033;-81
2022/02/19 08:03:18;;;;;;;18.15;5.60;;;8.00;99.90;;;;;;5035337;28;20025;-81
2022/02/19 08:05:44;;;;;;;14.88;5.10;;;8.00;99.90;;;;;;5035269;28;20025;-81
2022/02/19 08:08:10;;;;;;;19.60;6.13;;;8.10;99.90;;;;;;5053058;28;20032;-81
2022/02/19 08:10:36;;;;;;;15.57;5.22;;;8.00;99.90;;;;;;5035150;28;20416;-81
2022/02/19 08:13:09;;;;;;;16.70;5.18;;;8.00;99.90;;;;;;5034979;28;20029;-81
2022/02/19 08:15:36;;;;;;;10.88;4.75;;;8.00;99.90;;;;;;5034516;28;20017;-80
2022/02/19 08:18:05;;;;;;;15.75;4.57;;;8.00;99.90;;;;;;5035094;28;20067;-81
2022/02/19 08:20:31;;;;;;;13.63;4.38;;;8.00;99.90;;;;;;5035051;28;20029;-81
2022/02/19 08:22:59;;;;;;;12.18;4.45;;;8.10;99.90;;;;;;5035112;28;20607;-81
2022/02/19 08:25:24;;;;;;;17.73;4.72;;;8.20;99.90;;;;;;5034985;28;20103;-81
2022/02/19 08:27:50;;;;;;;16.23;4.60;;;8.30;99.90;;;;;;5052900;28;20445;-81
2022/02/19 08:30:16;;;;;;;14.32;4.50;;;8.40;99.90;;;;;;5034975;28;20369;-81
2022/02/19 08:32:41;;;;;;;11.63;4.28;;;8.60;99.90;;;;;;5034866;28;20025;-81
2022/02/19 08:35:08;;;;;;;15.25;4.50;;;8.70;99.90;;;;;;5034844;28;20033;-81
2022/02/19 08:37:34;;;;;;;10.10;3.75;;;9.00;99.90;;;;;;5052762;28;20017;-81
2022/02/19 08:40:00;;;;;;;13.40;3.95;;;9.20;99.90;;;;;;5034829;28;20117;-81
2022/02/19 08:42:26;;;;;;;14.00;3.70;;;9.30;99.90;;;;;;5052770;28;20017;-82
2022/02/19 08:44:51;;;;;;;10.70;4.18;;;9.40;99.90;;;;;;5034815;28;20396;-81
2022/02/19 08:47:17;;;;;;;14.32;4.38;;;9.40;99.90;;;;;;5034807;28;20028;-81
2022/02/19 08:49:43;;;;;;;9.23;3.20;;;9.70;99.90;;;;;;5034857;28;20481;-81
2022/02/19 08:52:08;;;;;;;9.75;3.65;;;9.90;99.90;;;;;;5034588;28;20033;-81
2022/02/19 08:54:35;;;;;;;15.02;3.72;;;9.80;99.90;;;;;;5035022;28;20404;-81
2022/02/19 08:57:01;;;;;;;10.55;3.33;;;10.10;99.90;;;;;;5034693;28;20029;-81
2022/02/19 08:59:27;;;;;;;9.10;3.10;;;10.10;99.90;;;;;;5034629;28;20021;-81
2022/02/19 09:01:53;;;;;;;10.88;3.08;;;10.30;99.90;;;;;;5034848;28;20382;-83
2022/02/19 09:04:19;;;;;;;15.32;2.70;;;10.30;99.90;;;;;;5036770;28;20079;-81
2022/02/19 09:06:45;;;;;;;6.70;1.88;;;10.50;99.90;;;;;;5034641;28;20112;-81
2022/02/19 09:09:11;;;;;;;9.70;1.80;;;10.80;99.90;;;;;;5034683;28;20025;-81
2022/02/19 09:11:38;;;;;;;11.63;2.13;;;11.00;99.90;;;;;;5034623;28;20033;-81
2022/02/19 09:14:05;;;;;;;8.27;1.70;;;11.50;99.90;;;;;;5034438;28;20120;-81
2022/02/19 09:16:34;;;;;;;9.70;1.88;;;11.80;99.90;;;;;;5034596;28;20033;-83
2022/02/19 09:19:00;;;;;;;5.95;1.75;;;12.00;99.90;;;;;;5034503;28;20017;-82
2022/02/19 09:21:28;;;;;;;7.35;1.67;;;12.40;99.90;;;;;;5034551;28;20021;-82
2022/02/19 09:23:54;;;;;;;9.85;1.90;;;12.40;99.90;;;;;;5034512;28;20024;-81
2022/02/19 09:26:20;;;;;;;7.82;1.60;;;12.50;99.90;;;;;;5034478;28;20032;-82
2022/02/19 09:28:47;;;;;;;8.43;1.70;;;12.60;99.90;;;;;;5054266;28;20061;-81
2022/02/19 09:31:14;;;;;;;8.80;1.45;;;12.70;99.90;;;;;;5038036;28;20127;-81
2022/02/19 09:33:41;;;;;;;6.72;1.75;;;12.90;99.90;;;;;;5037904;28;20112;-81
2022/02/19 09:36:08;;;;;;;9.20;1.48;;;13.00;99.90;;;;;;5037928;28;20017;-82
2022/02/19 09:38:34;;;;;;;7.78;1.83;;;13.10;99.90;;;;;;5037564;28;20104;-82
2022/02/19 09:41:02;;;;;;;6.75;1.90;;;13.20;99.90;;;;;;5037575;28;20077;-81
2022/02/19 09:43:28;;;;;;;6.40;1.58;;;13.20;99.90;;;;;;5037715;28;20086;-82
2022/02/19 09:45:54;;;;;;;5.93;1.42;;;13.20;99.90;;;;;;5037766;28;20393;-82
2022/02/19 09:48:21;;;;;;;6.53;1.77;;;13.20;99.90;;;;;;5037688;28;20043;-82
2022/02/19 09:50:51;;;;;;;5.32;1.75;;;13.40;99.90;;;;;;5037702;28;20496;-82
2022/02/19 09:53:18;;;;;;;9.15;1.90;;;13.40;99.90;;;;;;5037543;28;20028;-82
2022/02/19 09:55:43;;;;;;;7.10;1.65;;;13.50;99.90;;;;;;5037599;28;20033;-82
2022/02/19 09:58:09;;;;;;;7.57;1.88;;;13.40;99.90;;;;;;5055412;28;20119;-82
2022/02/19 10:00:35;;;;;;;6.18;1.60;;;13.40;99.90;;;;;;5037526;28;20017;-81
2022/02/19 10:03:01;;;;;;;7.05;1.70;;;13.40;99.90;;;;;;5037560;28;20037;-81
2022/02/19 10:05:29;;;;;;;10.73;1.60;;;13.40;99.90;;;;;;5037399;28;20401;-81
2022/02/19 10:08:06;;;;;;;8.27;2.00;;;13.20;99.90;;;;;;5055217;28;20029;-82
2022/02/19 10:10:35;;;;;;;8.45;1.65;;;13.10;99.90;;;;;;5037392;28;20495;-82
2022/02/19 10:13:01;;;;;;;9.02;1.48;;;13.10;99.90;;;;;;5037966;28;20029;-82
2022/02/19 10:15:48;;;;;;;5.85;1.33;;;13.10;99.90;;;;;;5037239;28;20029;-81
2022/02/19 10:18:29;;;;;;;7.15;1.40;;;13.00;99.90;;;;;;5037174;28;20429;-82
2022/02/19 10:21:09;;;;;;;5.38;1.45;;;12.90;99.90;;;;;;5037150;28;20477;-81
2022/02/19 10:23:39;;;;;;;8.57;1.50;;;12.80;99.90;;;;;;5037120;28;20036;-81
2022/02/19 10:26:05;;;;;;;7.53;1.70;;;12.70;99.90;;;;;;5054891;28;20381;-81
2022/02/19 10:28:31;;;;;;;4.13;1.15;;;12.60;99.90;;;;;;5055079;28;20063;-81
2022/02/19 10:31:09;;;;;;;7.47;1.50;;;12.50;99.90;;;;;;5036875;28;20056;-81
2022/02/19 10:33:36;;;;;;;6.30;1.30;;;12.50;99.90;;;;;;5054756;28;20025;-81
2022/02/19 10:36:03;;;;;;;6.97;1.38;;;12.30;99.90;;;;;;5036868;28;20488;-81
2022/02/19 10:38:28;;;;;;;8.88;1.80;;;12.30;99.90;;;;;;5036328;28;20025;-81
2022/02/19 10:40:57;;;;;;;5.47;1.73;;;12.30;99.90;;;;;;5054750;28;20021;-81
2022/02/19 10:43:29;;;;;;;4.65;1.27;;;12.10;99.90;;;;;;5054435;28;20028;-81
2022/02/19 10:45:56;;;;;;;6.93;1.80;;;12.10;99.90;;;;;;5036661;28;20037;-81
2022/02/19 10:48:30;;;;;;;7.82;1.70;;;12.00;99.90;;;;;;5036560;28;20021;-81
2022/02/19 10:51:14;;;;;;;6.67;1.40;;;12.00;99.90;;;;;;5036574;28;20057;-81
2022/02/19 10:53:43;;;;;;;4.60;1.40;;;11.90;99.90;;;;;;5037402;28;20461;-81
2022/02/19 10:56:13;;;;;;;6.80;1.48;;;12.00;99.90;;;;;;5054589;28;20037;-81
2022/02/19 10:59:07;;;;;;;6.57;1.30;;;12.00;99.90;;;;;;5036457;28;20029;-81
2022/02/19 11:01:39;;;;;;;7.75;1.40;;;12.10;99.90;;;;;;5032894;28;20041;-81
2022/02/19 11:04:09;;;;;;;4.72;1.33;;;12.20;99.90;;;;;;5033037;28;20025;-81
2022/02/19 11:06:35;;;;;;;6.40;1.55;;;12.30;99.90;;;;;;5034140;28;20056;-81
2022/02/19 11:09:02;;;;;;;6.72;1.40;;;12.40;99.90;;;;;;5032915;28;20029;-81
2022/02/19 11:11:28;;;;;;;10.35;1.52;;;12.50;99.90;;;;;;5032937;28;20022;-81
2022/02/19 11:13:57;;;;;;;4.53;1.23;;;12.60;99.90;;;;;;5032695;28;20078;-82
2022/02/19 11:16:24;;;;;;;8.02;1.48;;;12.70;99.90;;;;;;5034070;28;20022;-81
2022/02/19 11:18:50;;;;;;;5.57;1.30;;;12.70;99.90;;;;;;5033932;28;20037;-84
2022/02/19 11:21:16;;;;;;;5.50;1.55;;;12.80;99.90;;;;;;5033899;28;20033;-81
2022/02/19 11:23:46;;;;;;;4.53;1.50;;;12.80;99.90;;;;;;5032539;28;20021;-80
2022/02/19 11:26:17;;;;;;;6.10;1.50;;;12.90;99.90;;;;;;5032614;28;20032;-81
2022/02/19 11:28:43;;;;;;;5.88;1.30;;;12.90;99.90;;;;;;5032618;28;20028;-82
2022/02/19 11:31:10;;;;;;;5.28;1.20;;;12.80;99.90;;;;;;5032502;28;20034;-81
2022/02/19 11:33:39;;;;;;;6.60;1.42;;;12.70;99.90;;;;;;5032394;28;20080;-81
2022/02/19 11:36:09;;;;;;;4.28;1.25;;;12.60;99.90;;;;;;5032436;28;20025;-81
2022/02/19 11:38:46;;;;;;;6.90;1.40;;;12.60;99.90;;;;;;5032387;28;20029;-81
2022/02/19 11:41:15;;;;;;;8.90;1.30;;;12.50;99.90;;;;;;5032348;28;20018;-81
2022/02/19 11:43:47;;;;;;;3.78;1.20;;;12.50;99.90;;;;;;5032171;28;20108;-81
2022/02/19 11:46:16;;;;;;;4.60;1.42;;;12.50;99.90;;;;;;5032263;28;20068;-81
2022/02/19 11:48:47;;;;;;;6.55;1.20;;;12.40;99.90;;;;;;5032225;28;20018;-81
2022/02/19 11:51:17;;;;;;;8.20;1.13;;;12.40;99.90;;;;;;5031454;28;20052;-81
2022/02/19 11:53:44;;;;;;;4.22;1.10;;;12.50;99.90;;;;;;5033500;28;20026;-82
2022/02/19 11:56:27;;;;;;;5.65;1.10;;;12.60;99.90;;;;;;5032122;28;20022;-81
2022/02/19 11:58:55;;;;;;;7.22;1.52;;;12.60;99.90;;;;;;5033478;28;20071;-81
2022/02/19 12:01:21;;;;;;;7.53;1.20;;;12.60;99.90;;;;;;5031857;28;20053;-81
2022/02/19 12:03:47;;;;;;;3.70;1.20;;;12.60;99.90;;;;;;5032067;28;20087;-82
2022/02/19 12:06:27;;;;;;;5.32;1.45;;;12.70;99.90;;;;;;5033262;28;20025;-81
2022/02/19 12:09:08;;;;;;;5.00;1.38;;;12.70;99.90;;;;;;5031966;28;20029;-80
2022/02/19 12:11:49;;;;;;;3.92;1.33;;;12.80;99.90;;;;;;5032002;28;20083;-81
2022/02/19 12:14:41;;;;;;;5.28;1.50;;;12.80;99.90;;;;;;5031845;28;20033;-81
2022/02/19 12:17:15;;;;;;;4.45;1.23;;;12.80;99.90;;;;;;5031894;28;20032;-81
2022/02/19 12:19:57;;;;;;;4.82;1.23;;;12.80;99.90;;;;;;5031938;28;20108;-81
2022/02/19 12:22:51;;;;;;;4.25;1.15;;;12.80;99.90;;;;;;5033390;28;20473;-81
2022/02/19 12:25:17;;;;;;;5.93;1.10;;;12.80;99.90;;;;;;5031817;28;20025;-81
2022/02/19 12:27:44;;;;;;;3.53;0.80;;;12.90;99.90;;;;;;5031733;28;20125;-81
2022/02/19 12:30:27;;;;;;;4.03;1.02;;;12.90;99.90;;;;;;5031751;28;20022;-82
2022/02/19 12:32:55;;;;;;;3.38;1.25;;;13.00;99.90;;;;;;5031688;28;20029;-81
2022/02/19 12:35:34;;;;;;;3.88;1.10;;;13.00;99.90;;;;;;5031717;28;20049;-81
2022/02/19 12:38:00;;;;;;;3.13;1.10;;;13.00;99.90;;;;;;5031728;28;20140;-81
2022/02/19 12:40:26;;;;;;;3.95;1.27;;;13.10;99.90;;;;;;5031657;28;20471;-81
2022/02/19 12:42:52;;;;;;;3.85;1.30;;;13.10;99.90;;;;;;5031643;28;20029;-81
2022/02/19 12:45:19;;;;;;;4.82;1.13;;;13.10;99.90;;;;;;5032910;28;20057;-81
2022/02/19 12:47:45;;;;;;;5.50;1.25;;;13.00;99.90;;;;;;5031680;28;20507;-81
2022/02/19 12:50:13;;;;;;;4.47;1.30;;;12.90;99.90;;;;;;5031701;28;20116;-82
2022/02/19 12:52:38;;;;;;;6.22;1.20;;;12.90;99.90;;;;;;5031494;28;20029;-82
2022/02/19 12:55:16;;;;;;;2.90;1.00;;;13.00;99.90;;;;;;5031632;28;20022;-81
2022/02/19 12:57:43;;;;;;;3.80;1.27;;;12.90;99.90;;;;;;5033195;28;20045;-82
2022/02/19 13:00:08;;;;;;;3.92;0.70;;;13.00;99.90;;;;;;5031615;28;20034;-81